createdAt,value
2022-08-26T00:01:11.760Z,6.87
2022-08-26T00:03:39.514Z,7.10
2022-08-26T00:06:07.573Z,7.97
2022-08-26T00:08:35.555Z,6.83
2022-08-26T00:11:05.622Z,7.00
2022-08-26T00:13:32.921Z,8.00
2022-08-26T00:16:00.512Z,7.20
2022-08-26T00:18:27.387Z,6.83
2022-08-26T00:20:57.510Z,8.13
2022-08-26T00:23:24.527Z,7.70
2022-08-26T00:25:51.926Z,8.00
2022-08-26T00:28:18.997Z,7.07
2022-08-26T00:30:49.278Z,7.43
2022-08-26T00:33:20.014Z,7.03
2022-08-26T00:35:47.765Z,7.80
2022-08-26T00:38:15.127Z,7.57
2022-08-26T00:40:47.610Z,7.17
2022-08-26T00:43:15.771Z,6.20
2022-08-26T00:45:47.932Z,7.73
2022-08-26T00:48:17.327Z,7.73
2022-08-26T00:50:49.466Z,8.03
2022-08-26T00:53:24.049Z,7.00
2022-08-26T00:55:58.427Z,7.53
2022-08-26T00:58:27.051Z,7.47
2022-08-26T01:00:54.117Z,7.60
2022-08-26T01:03:23.852Z,7.70
2022-08-26T01:05:57.066Z,7.40
2022-08-26T01:08:24.725Z,7.10
2022-08-26T01:10:52.388Z,6.93
2022-08-26T01:13:23.973Z,6.40
2022-08-26T01:15:56.636Z,7.93
2022-08-26T01:18:23.551Z,7.93
2022-08-26T01:21:12.738Z,8.33
2022-08-26T01:23:42.089Z,7.43
2022-08-26T01:26:24.213Z,7.50
2022-08-26T01:28:55.411Z,6.40
2022-08-26T01:31:26.087Z,6.90
2022-08-26T01:33:59.223Z,7.53
2022-08-26T01:36:26.645Z,7.80
2022-08-26T01:38:53.665Z,8.50
2022-08-26T01:41:27.257Z,8.70
2022-08-26T01:43:56.226Z,7.50
2022-08-26T01:46:23.997Z,7.80
2022-08-26T01:48:54.535Z,7.50
2022-08-26T01:51:22.797Z,8.60
2022-08-26T01:53:49.756Z,7.93
2022-08-26T01:56:16.515Z,7.60
2022-08-26T01:58:55.313Z,8.43
2022-08-26T02:01:24.537Z,7.57
2022-08-26T02:04:03.598Z,7.33
2022-08-26T02:06:30.236Z,7.90
2022-08-26T02:08:58.171Z,6.70
2022-08-26T02:11:24.772Z,7.33
2022-08-26T02:13:56.012Z,7.37
2022-08-26T02:16:24.903Z,6.87
2022-08-26T02:18:52.833Z,6.63
2022-08-26T02:21:20.094Z,7.30
2022-08-26T02:23:46.689Z,7.20
2022-08-26T02:26:18.130Z,7.43
2022-08-26T02:28:53.089Z,7.77
2022-08-26T02:31:19.871Z,8.00
2022-08-26T02:33:46.578Z,7.90
2022-08-26T02:36:13.425Z,7.47
2022-08-26T02:38:40.196Z,8.20
2022-08-26T02:41:10.180Z,8.00
2022-08-26T02:43:37.085Z,7.80
2022-08-26T02:46:03.928Z,6.37
2022-08-26T02:48:31.110Z,7.27
2022-08-26T02:51:01.998Z,7.60
2022-08-26T02:53:31.785Z,8.50
2022-08-26T02:55:59.072Z,7.80
2022-08-26T02:58:26.547Z,6.43
2022-08-26T03:00:53.871Z,6.90
2022-08-26T03:03:23.438Z,7.23
2022-08-26T03:05:50.326Z,7.50
2022-08-26T03:08:17.088Z,7.30
2022-08-26T03:10:44.097Z,7.23
2022-08-26T03:13:11.126Z,7.37
2022-08-26T03:15:37.633Z,7.10
2022-08-26T03:18:04.964Z,7.47
2022-08-26T03:20:32.038Z,7.13
2022-08-26T03:22:58.651Z,7.10
2022-08-26T03:25:26.356Z,7.27
2022-08-26T03:27:53.604Z,7.17
2022-08-26T03:30:45.415Z,7.70
2022-08-26T03:33:12.844Z,8.10
2022-08-26T03:35:41.687Z,7.20
2022-08-26T03:38:08.548Z,6.93
2022-08-26T03:40:36.847Z,6.90
2022-08-26T03:43:05.258Z,7.10
2022-08-26T03:45:32.546Z,7.67
2022-08-26T03:48:00.003Z,7.23
2022-08-26T03:50:27.167Z,6.40
2022-08-26T03:52:55.259Z,6.60
2022-08-26T03:55:25.130Z,7.30
2022-08-26T03:57:53.495Z,7.33
2022-08-26T04:00:20.455Z,6.53
2022-08-26T04:02:48.882Z,8.00
2022-08-26T04:05:17.599Z,7.63
2022-08-26T04:07:44.639Z,7.20
2022-08-26T04:10:13.012Z,7.97
2022-08-26T04:12:39.896Z,7.07
2022-08-26T04:15:08.633Z,6.17
2022-08-26T04:17:35.171Z,7.70
2022-08-26T04:20:02.740Z,7.70
2022-08-26T04:22:29.375Z,6.73
2022-08-26T04:24:55.884Z,6.67
2022-08-26T04:27:22.678Z,6.60
2022-08-26T04:29:52.450Z,6.80
2022-08-26T04:32:23.445Z,7.17
2022-08-26T04:34:49.948Z,7.40
2022-08-26T04:37:17.604Z,7.40
2022-08-26T04:39:44.853Z,6.77
2022-08-26T04:42:13.382Z,7.23
2022-08-26T04:44:40.713Z,7.33
2022-08-26T04:47:07.199Z,6.57
2022-08-26T04:49:35.384Z,6.80
2022-08-26T04:52:03.177Z,5.80
2022-08-26T04:54:31.307Z,6.60
2022-08-26T04:56:57.874Z,7.17
2022-08-26T04:59:25.323Z,6.77
2022-08-26T05:01:53.194Z,6.07
2022-08-26T05:04:20.983Z,6.57
2022-08-26T05:06:48.278Z,6.70
2022-08-26T05:09:15.605Z,7.03
2022-08-26T05:11:42.171Z,6.53
2022-08-26T05:14:09.012Z,6.90
2022-08-26T05:16:35.840Z,7.17
2022-08-26T05:19:03.607Z,6.17
2022-08-26T05:21:30.185Z,7.27
2022-08-26T05:23:57.063Z,6.60
2022-08-26T05:26:25.801Z,7.07
2022-08-26T05:28:54.663Z,6.80
2022-08-26T05:31:25.739Z,6.40
2022-08-26T05:33:52.420Z,7.00
2022-08-26T05:36:21.152Z,6.23
2022-08-26T05:38:48.699Z,6.10
2022-08-26T05:41:19.379Z,6.67
2022-08-26T05:43:46.231Z,7.27
2022-08-26T05:46:13.117Z,6.77
2022-08-26T05:48:40.516Z,6.50
2022-08-26T05:51:12.095Z,6.67
2022-08-26T05:53:40.657Z,7.13
2022-08-26T05:56:11.599Z,6.60
2022-08-26T05:58:40.413Z,6.60
2022-08-26T06:01:08.413Z,5.20
2022-08-26T06:03:38.741Z,7.10
2022-08-26T06:06:10.988Z,6.10
2022-08-26T06:08:37.987Z,6.37
2022-08-26T06:11:07.731Z,6.23
2022-08-26T06:13:44.908Z,6.40
2022-08-26T06:16:16.323Z,6.60
2022-08-26T06:18:44.736Z,6.63
2022-08-26T06:21:22.749Z,5.93
2022-08-26T06:24:09.950Z,6.00
2022-08-26T06:26:36.729Z,6.37
2022-08-26T06:29:04.591Z,6.37
2022-08-26T06:31:33.568Z,5.80
2022-08-26T06:34:01.168Z,6.10
2022-08-26T06:36:30.580Z,5.33
2022-08-26T06:39:01.067Z,6.10
2022-08-26T06:41:27.850Z,5.70
2022-08-26T06:43:54.372Z,7.30
2022-08-26T06:46:21.926Z,5.77
2022-08-26T06:48:49.109Z,6.13
2022-08-26T06:51:18.516Z,5.93
2022-08-26T06:53:47.085Z,6.27
2022-08-26T06:56:17.140Z,6.67
2022-08-26T06:58:43.903Z,6.43
2022-08-26T07:01:22.560Z,5.77
2022-08-26T07:03:51.033Z,6.07
2022-08-26T07:06:21.637Z,5.97
2022-08-26T07:08:53.330Z,6.20
2022-08-26T07:11:20.857Z,6.20
2022-08-26T07:13:47.752Z,6.87
2022-08-26T07:16:17.518Z,7.07
2022-08-26T07:18:44.775Z,5.63
2022-08-26T07:21:14.492Z,5.90
2022-08-26T07:23:41.615Z,5.63
2022-08-26T07:26:11.083Z,6.23
2022-08-26T07:28:38.297Z,5.93
2022-08-26T07:31:09.592Z,5.83
2022-08-26T07:33:38.630Z,5.70
2022-08-26T07:36:08.934Z,6.07
2022-08-26T07:38:36.950Z,6.83
2022-08-26T07:41:03.759Z,6.50
2022-08-26T07:43:30.519Z,5.50
2022-08-26T07:45:57.653Z,5.00
2022-08-26T07:48:24.731Z,6.10
2022-08-26T07:50:53.737Z,5.80
2022-08-26T07:53:21.552Z,5.97
2022-08-26T07:55:51.073Z,5.60
2022-08-26T07:58:19.215Z,5.63
2022-08-26T08:00:46.416Z,7.40
2022-08-26T08:03:15.127Z,6.80
2022-08-26T08:05:42.417Z,6.07
2022-08-26T08:08:27.764Z,5.70
2022-08-26T08:10:56.303Z,6.33
2022-08-26T08:13:23.609Z,5.83
2022-08-26T08:15:50.437Z,5.33
2022-08-26T08:18:17.726Z,5.90
2022-08-26T08:21:04.796Z,6.67
2022-08-26T08:23:32.697Z,5.77
2022-08-26T08:26:08.247Z,5.87
2022-08-26T08:28:36.072Z,6.63
2022-08-26T08:31:02.918Z,5.60
2022-08-26T08:33:33.501Z,6.00
2022-08-26T08:36:00.339Z,6.00
2022-08-26T08:38:27.749Z,5.60
2022-08-26T08:40:54.386Z,5.63
2022-08-26T08:43:32.181Z,5.90
2022-08-26T08:46:10.823Z,6.20
2022-08-26T08:48:40.154Z,5.37
2022-08-26T08:51:13.937Z,6.90
2022-08-26T08:53:43.322Z,6.07
2022-08-26T08:56:21.308Z,6.00
2022-08-26T08:59:03.034Z,6.70
2022-08-26T09:01:44.731Z,6.47
2022-08-26T09:04:17.240Z,5.60
2022-08-26T09:06:45.062Z,5.50
2022-08-26T09:09:16.918Z,8.17
2022-08-26T09:11:43.480Z,6.23
2022-08-26T09:14:10.523Z,5.90
2022-08-26T09:16:51.663Z,5.80
2022-08-26T09:19:30.812Z,5.83
2022-08-26T09:21:59.525Z,6.30
2022-08-26T09:24:28.336Z,6.67
2022-08-26T09:26:57.826Z,6.50
2022-08-26T09:29:30.619Z,5.70
2022-08-26T09:32:35.222Z,5.87
2022-08-26T09:35:06.151Z,6.90
2022-08-26T09:40:29.718Z,6.40
2022-08-26T09:43:08.388Z,6.60
2022-08-26T09:45:36.251Z,5.93
2022-08-26T09:48:03.398Z,5.03
2022-08-26T09:51:00.917Z,5.60
2022-08-26T09:53:30.909Z,6.00
2022-08-26T09:56:25.688Z,6.10
2022-08-26T09:58:55.396Z,5.33
2022-08-26T10:01:33.450Z,5.40
2022-08-26T10:04:12.589Z,5.07
2022-08-26T10:06:54.475Z,6.47
2022-08-26T10:09:21.877Z,5.77
2022-08-26T10:12:01.342Z,6.63
2022-08-26T10:14:34.243Z,6.40
2022-08-26T10:17:05.501Z,6.30
2022-08-26T10:19:56.537Z,6.10
2022-08-26T10:22:35.421Z,5.80
2022-08-26T10:25:05.423Z,7.03
2022-08-26T10:27:51.206Z,7.43
2022-08-26T10:30:23.198Z,5.70
2022-08-26T10:33:00.803Z,6.57
2022-08-26T10:35:28.143Z,6.47
2022-08-26T10:38:03.886Z,6.17
2022-08-26T10:40:57.262Z,6.00
2022-08-26T10:43:43.084Z,6.00
2022-08-26T10:46:14.809Z,5.53
2022-08-26T10:48:43.899Z,6.03
2022-08-26T10:51:12.843Z,6.60
2022-08-26T10:53:51.584Z,6.10
2022-08-26T10:56:48.441Z,5.23
2022-08-26T10:59:20.920Z,5.63
2022-08-26T11:02:03.728Z,5.77
2022-08-26T11:04:38.635Z,6.47
2022-08-26T11:07:33.247Z,5.20
2022-08-26T11:10:05.881Z,6.40
2022-08-26T11:12:39.017Z,6.27
2022-08-26T11:15:11.148Z,5.57
2022-08-26T11:17:46.154Z,6.47
2022-08-26T11:20:28.119Z,5.63
2022-08-26T11:22:56.085Z,6.80
2022-08-26T11:25:30.174Z,5.90
2022-08-26T11:27:59.885Z,6.30
2022-08-26T11:30:40.101Z,6.63
2022-08-26T11:33:08.226Z,6.30
2022-08-26T11:35:34.867Z,5.60
2022-08-26T11:38:28.629Z,5.53
2022-08-26T11:41:29.364Z,6.23
2022-08-26T11:43:56.468Z,5.77
2022-08-26T11:46:28.681Z,6.57
2022-08-26T11:49:06.832Z,6.40
2022-08-26T11:51:37.028Z,6.47
2022-08-26T11:54:35.136Z,6.00
2022-08-26T11:57:07.820Z,5.60
2022-08-26T11:59:39.386Z,5.87
2022-08-26T12:02:15.100Z,6.40
2022-08-26T12:04:43.544Z,6.20
2022-08-26T12:07:10.496Z,6.20
2022-08-26T12:09:38.395Z,5.93
2022-08-26T12:12:15.497Z,6.03
2022-08-26T12:14:42.197Z,6.10
2022-08-26T12:17:19.707Z,6.00
2022-08-26T12:19:49.463Z,5.73
2022-08-26T12:22:30.476Z,5.40
2022-08-26T12:24:59.850Z,5.70
2022-08-26T12:27:30.787Z,6.10
2022-08-26T12:30:12.574Z,6.73
2022-08-26T12:32:57.306Z,5.93
2022-08-26T12:35:25.471Z,7.50
2022-08-26T12:37:53.563Z,6.73
2022-08-26T12:40:39.339Z,6.37
2022-08-26T12:43:07.496Z,6.60
2022-08-26T12:45:37.227Z,6.03
2022-08-26T12:48:13.449Z,6.00
2022-08-26T12:50:47.366Z,6.03
2022-08-26T12:53:25.951Z,5.70
2022-08-26T12:55:55.060Z,7.13
2022-08-26T12:58:27.779Z,6.60
2022-08-26T13:01:07.106Z,6.50
2022-08-26T13:03:45.936Z,7.60
2022-08-26T13:06:31.294Z,7.43
2022-08-26T13:09:09.865Z,6.70
2022-08-26T13:11:39.473Z,6.97
2022-08-26T13:14:23.823Z,6.03
2022-08-26T13:16:51.572Z,6.77
2022-08-26T13:19:21.967Z,6.00
2022-08-26T13:21:54.061Z,6.37
2022-08-26T13:24:22.062Z,6.63
2022-08-26T13:26:49.998Z,9.77
2022-08-26T13:29:17.019Z,7.60
2022-08-26T13:31:44.671Z,6.40
2022-08-26T13:34:14.244Z,6.90
2022-08-26T13:36:42.196Z,6.73
2022-08-26T13:39:08.691Z,7.70
2022-08-26T13:41:36.288Z,7.67
2022-08-26T13:44:03.021Z,7.87
2022-08-26T13:46:29.711Z,7.63
2022-08-26T13:48:57.328Z,6.77
2022-08-26T13:51:25.029Z,6.97
2022-08-26T13:53:52.208Z,6.93
2022-08-26T13:56:19.842Z,6.30
2022-08-26T13:58:46.652Z,7.43
2022-08-26T14:01:15.632Z,8.27
2022-08-26T14:03:42.914Z,6.10
2022-08-26T14:06:09.767Z,7.73
2022-08-26T14:08:37.028Z,8.07
2022-08-26T14:11:03.593Z,7.80
2022-08-26T14:13:30.148Z,7.70
2022-08-26T14:15:59.593Z,7.43
2022-08-26T14:18:32.222Z,8.70
2022-08-26T14:20:59.212Z,8.63
2022-08-26T14:23:26.259Z,8.33
2022-08-26T14:25:52.879Z,8.43
2022-08-26T14:28:19.463Z,8.90
2022-08-26T14:30:51.324Z,8.13
2022-08-26T14:33:20.460Z,8.60
2022-08-26T14:35:47.886Z,7.90
2022-08-26T14:38:16.658Z,8.00
2022-08-26T14:40:46.645Z,8.63
2022-08-26T14:43:15.344Z,8.13
2022-08-26T14:45:43.941Z,7.90
2022-08-26T14:48:11.055Z,8.00
2022-08-26T14:50:38.484Z,8.37
2022-08-26T14:53:23.648Z,7.10
2022-08-26T14:55:50.547Z,9.00
2022-08-26T14:58:17.254Z,8.30
2022-08-26T15:00:43.760Z,7.87
2022-08-26T15:03:10.616Z,8.00
2022-08-26T15:05:37.405Z,8.80
2022-08-26T15:08:10.512Z,8.00
2022-08-26T15:10:37.613Z,9.13
2022-08-26T15:13:04.505Z,7.87
2022-08-26T15:15:31.019Z,8.87
2022-08-26T15:17:58.302Z,7.73
2022-08-26T15:20:24.937Z,7.63
2022-08-26T15:22:51.607Z,7.07
2022-08-26T15:25:20.122Z,7.40
2022-08-26T15:27:46.869Z,7.17
2022-08-26T15:30:13.595Z,8.30
2022-08-26T15:32:40.471Z,7.10
2022-08-26T15:35:09.243Z,6.90
2022-08-26T15:37:36.520Z,7.37
2022-08-26T15:40:04.123Z,7.63
2022-08-26T15:42:30.805Z,8.98
2022-08-26T15:44:57.584Z,8.90
2022-08-26T15:47:24.401Z,8.47
2022-08-26T15:49:50.895Z,9.13
2022-08-26T15:52:18.456Z,7.57
2022-08-26T15:54:44.951Z,7.50
2022-08-26T15:57:12.936Z,6.10
2022-08-26T15:59:40.270Z,6.93
2022-08-26T16:02:08.700Z,7.20
2022-08-26T16:04:35.382Z,6.87
2022-08-26T16:07:02.544Z,8.00
2022-08-26T16:09:30.640Z,7.47
2022-08-26T16:11:57.871Z,8.17
2022-08-26T16:14:25.116Z,8.90
2022-08-26T16:16:51.628Z,7.13
2022-08-26T16:19:18.182Z,7.03
2022-08-26T16:21:45.385Z,9.27
2022-08-26T16:24:12.688Z,8.43
2022-08-26T16:26:41.842Z,8.27
2022-08-26T16:29:11.115Z,8.23
2022-08-26T16:31:38.507Z,8.57
2022-08-26T16:34:08.514Z,7.97
2022-08-26T16:36:36.561Z,8.53
2022-08-26T16:39:04.682Z,8.67
2022-08-26T16:41:31.801Z,7.93
2022-08-26T16:43:58.781Z,8.70
2022-08-26T16:46:26.330Z,6.87
2022-08-26T16:48:57.244Z,7.10
2022-08-26T16:51:27.099Z,6.23
2022-08-26T16:53:54.835Z,7.13
2022-08-26T16:56:23.477Z,7.30
2022-08-26T16:58:57.229Z,6.77
2022-08-26T17:01:24.048Z,6.40
2022-08-26T17:03:50.869Z,9.30
2022-08-26T17:06:17.473Z,7.00
2022-08-26T17:08:45.623Z,7.50
2022-08-26T17:11:12.568Z,8.70
2022-08-26T17:13:39.219Z,7.00
2022-08-26T17:16:07.730Z,7.63
2022-08-26T17:18:34.893Z,6.90
2022-08-26T17:21:04.387Z,6.10
2022-08-26T17:23:30.935Z,6.90
2022-08-26T17:25:57.468Z,8.23
2022-08-26T17:28:23.992Z,7.40
2022-08-26T17:30:50.647Z,6.90
2022-08-26T17:33:21.955Z,6.93
2022-08-26T17:35:51.110Z,7.10
2022-08-26T17:38:17.595Z,7.00
2022-08-26T17:40:44.180Z,5.87
2022-08-26T17:43:12.435Z,8.73
2022-08-26T17:45:40.335Z,7.53
2022-08-26T17:48:07.989Z,6.00
2022-08-26T17:50:34.704Z,5.33
2022-08-26T17:53:01.257Z,5.50
2022-08-26T17:55:27.927Z,6.40
2022-08-26T17:57:54.550Z,6.87
2022-08-26T18:00:28.712Z,6.10
2022-08-26T18:02:55.652Z,4.97
2022-08-26T18:05:22.502Z,5.87
2022-08-26T18:07:49.140Z,5.43
2022-08-26T18:10:17.899Z,7.80
2022-08-26T18:12:45.330Z,5.80
2022-08-26T18:15:14.085Z,4.90
2022-08-26T18:17:40.764Z,5.30
2022-08-26T18:20:09.442Z,5.33
2022-08-26T18:22:36.168Z,5.80
2022-08-26T18:25:04.919Z,5.27
2022-08-26T18:27:31.435Z,7.43
2022-08-26T18:29:58.138Z,6.10
2022-08-26T18:32:24.670Z,6.37
2022-08-26T18:34:51.171Z,6.60
2022-08-26T18:37:17.698Z,5.97
2022-08-26T18:39:44.243Z,5.70
2022-08-26T18:42:10.746Z,6.97
2022-08-26T18:44:37.544Z,5.80
2022-08-26T18:47:04.467Z,5.43
2022-08-26T18:49:31.041Z,6.30
2022-08-26T18:51:57.696Z,5.73
2022-08-26T18:54:24.218Z,5.67
2022-08-26T18:56:50.764Z,5.03
2022-08-26T18:59:17.500Z,5.63
2022-08-26T19:01:45.333Z,5.90
2022-08-26T19:04:14.080Z,6.53
2022-08-26T19:06:43.352Z,6.43
2022-08-26T19:09:11.937Z,6.73
2022-08-26T19:11:43.006Z,7.80
2022-08-26T19:14:13.676Z,6.80
2022-08-26T19:16:42.506Z,6.33
2022-08-26T19:19:09.068Z,6.37
2022-08-26T19:21:36.762Z,5.90
2022-08-26T19:24:06.105Z,5.53
2022-08-26T19:26:32.935Z,6.07
2022-08-26T19:29:00.093Z,5.97
2022-08-26T19:31:27.028Z,6.40
2022-08-26T19:33:53.957Z,6.23
2022-08-26T19:36:22.696Z,6.20
2022-08-26T19:38:50.046Z,6.30
2022-08-26T19:41:20.415Z,6.60
2022-08-26T19:43:47.706Z,6.07
2022-08-26T19:46:20.130Z,5.67
2022-08-26T19:48:47.473Z,5.40
2022-08-26T19:51:19.612Z,5.90
2022-08-26T19:53:47.655Z,5.30
2022-08-26T19:56:14.831Z,6.77
2022-08-26T19:58:41.824Z,5.30
2022-08-26T20:01:09.025Z,7.37
2022-08-26T20:03:36.367Z,6.60
2022-08-26T20:06:05.267Z,6.50
2022-08-26T20:08:32.980Z,7.07
2022-08-26T20:11:02.598Z,5.87
2022-08-26T20:13:29.100Z,6.60
2022-08-26T20:15:55.673Z,6.20
2022-08-26T20:18:40.827Z,7.50
2022-08-26T20:21:25.685Z,7.57
2022-08-26T20:23:54.069Z,6.13
2022-08-26T20:26:20.829Z,6.10
2022-08-26T20:28:47.444Z,6.53
2022-08-26T20:31:18.641Z,8.40
2022-08-26T20:33:46.616Z,7.23
2022-08-26T20:36:15.004Z,7.20
2022-08-26T20:38:41.740Z,5.90
2022-08-26T20:41:08.577Z,5.80
2022-08-26T20:43:35.344Z,5.87
2022-08-26T20:46:01.863Z,5.77
2022-08-26T20:48:28.619Z,5.70
2022-08-26T20:50:59.180Z,5.50
2022-08-26T20:53:27.053Z,5.47
2022-08-26T20:55:55.025Z,5.20
2022-08-26T20:58:23.784Z,4.30
2022-08-26T21:00:50.353Z,5.13
2022-08-26T21:03:16.980Z,4.73
2022-08-26T21:05:43.475Z,6.50
2022-08-26T21:08:10.166Z,5.73
2022-08-26T21:10:39.451Z,4.90
2022-08-26T21:13:06.039Z,4.50
2022-08-26T21:15:32.629Z,4.37
2022-08-26T21:17:59.818Z,4.70
2022-08-26T21:20:26.703Z,4.50
2022-08-26T21:22:53.221Z,4.30
2022-08-26T21:25:19.851Z,5.53
2022-08-26T21:27:46.554Z,4.27
2022-08-26T21:30:17.478Z,5.00
2022-08-26T21:32:43.998Z,5.63
2022-08-26T21:35:10.912Z,4.80
2022-08-26T21:37:37.386Z,6.23
2022-08-26T21:40:05.404Z,4.57
2022-08-26T21:42:34.266Z,4.80
2022-08-26T21:45:01.509Z,4.37
2022-08-26T21:47:28.801Z,4.37
2022-08-26T21:49:55.310Z,4.83
2022-08-26T21:52:21.988Z,4.80
2022-08-26T21:54:49.332Z,4.90
2022-08-26T21:57:16.675Z,4.00
2022-08-26T21:59:43.368Z,4.87
2022-08-26T22:02:11.262Z,4.63
2022-08-26T22:04:37.852Z,4.50
2022-08-26T22:07:05.034Z,4.80
2022-08-26T22:09:31.729Z,5.10
2022-08-26T22:11:59.339Z,4.83
2022-08-26T22:14:30.663Z,5.03
2022-08-26T22:16:58.288Z,4.63
2022-08-26T22:19:24.848Z,4.50
2022-08-26T22:21:54.184Z,5.60
2022-08-26T22:24:22.819Z,4.43
2022-08-26T22:26:50.185Z,4.10
2022-08-26T22:29:18.602Z,4.13
2022-08-26T22:31:45.387Z,4.80
2022-08-26T22:34:15.668Z,6.10
2022-08-26T22:36:45.399Z,5.00
2022-08-26T22:39:13.484Z,5.40
2022-08-26T22:41:40.770Z,4.40
2022-08-26T22:44:07.522Z,4.43
2022-08-26T22:46:36.693Z,4.47
2022-08-26T22:49:04.686Z,4.13
2022-08-26T22:51:31.911Z,4.60
2022-08-26T22:53:58.399Z,4.60
2022-08-26T22:56:24.936Z,5.70
2022-08-26T22:58:51.486Z,4.70
2022-08-26T23:01:18.296Z,5.73
2022-08-26T23:03:46.143Z,5.27
2022-08-26T23:06:12.782Z,6.00
2022-08-26T23:08:40.415Z,4.50
2022-08-26T23:11:08.729Z,4.90
2022-08-26T23:13:36.445Z,5.07
2022-08-26T23:16:06.426Z,3.97
2022-08-26T23:18:32.856Z,4.43
2022-08-26T23:20:59.436Z,4.60
2022-08-26T23:23:27.449Z,4.20
2022-08-26T23:25:55.111Z,4.53
2022-08-26T23:28:22.132Z,4.30
2022-08-26T23:30:49.405Z,5.20
2022-08-26T23:33:15.993Z,4.90
2022-08-26T23:35:42.468Z,5.27
2022-08-26T23:38:10.138Z,4.60
2022-08-26T23:40:40.927Z,4.33
2022-08-26T23:43:09.547Z,4.87
2022-08-26T23:45:36.156Z,4.17
2022-08-26T23:48:03.413Z,4.20
2022-08-26T23:50:49.500Z,4.70
2022-08-26T23:53:20.012Z,5.20
2022-08-26T23:55:48.565Z,4.70
2022-08-26T23:58:16.487Z,4.87
